sensor_id;sensor_type;location;lat;lon;timestamp;P1;durP1;ratioP1;P2;durP2;ratioP2
6999;SDS011;3540;53.242;10.408;2024-03-17T00:02:17;22.43;;;3.87;;
6999;SDS011;3540;53.242;10.408;2024-03-17T00:04:43;24.00;;;4.00;;
6999;SDS011;3540;53.242;10.408;2024-03-17T00:07:10;16.13;;;3.57;;
6999;SDS011;3540;53.242;10.408;2024-03-17T00:09:36;26.90;;;4.57;;
6999;SDS011;3540;53.242;10.408;2024-03-17T00:12:01;25.60;;;3.40;;
6999;SDS011;3540;53.242;10.408;2024-03-17T00:14:27;23.83;;;4.07;;
6999;SDS011;3540;53.242;10.408;2024-03-17T00:16:53;24.10;;;4.23;;
6999;SDS011;3540;53.242;10.408;2024-03-17T00:19:19;28.33;;;4.77;;
6999;SDS011;3540;53.242;10.408;2024-03-17T00:21:47;19.57;;;4.07;;
6999;SDS011;3540;53.242;10.408;2024-03-17T00:24:15;24.50;;;4.10;;
6999;SDS011;3540;53.242;10.408;2024-03-17T00:26:41;19.83;;;3.77;;
6999;SDS011;3540;53.242;10.408;2024-03-17T00:29:07;33.03;;;4.40;;
6999;SDS011;3540;53.242;10.408;2024-03-17T00:31:32;22.97;;;3.87;;
6999;SDS011;3540;53.242;10.408;2024-03-17T00:33:58;20.60;;;4.30;;
6999;SDS011;3540;53.242;10.408;2024-03-17T00:36:24;24.57;;;3.60;;
6999;SDS011;3540;53.242;10.408;2024-03-17T00:38:49;26.93;;;4.23;;
6999;SDS011;3540;53.242;10.408;2024-03-17T00:41:17;19.37;;;3.70;;
6999;SDS011;3540;53.242;10.408;2024-03-17T00:43:44;27.33;;;4.23;;
6999;SDS011;3540;53.242;10.408;2024-03-17T00:46:09;21.27;;;3.57;;
6999;SDS011;3540;53.242;10.408;2024-03-17T00:48:35;18.60;;;3.70;;
6999;SDS011;3540;53.242;10.408;2024-03-17T00:51:01;29.80;;;3.83;;
6999;SDS011;3540;53.242;10.408;2024-03-17T00:53:27;27.27;;;3.60;;
6999;SDS011;3540;53.242;10.408;2024-03-17T00:55:54;23.33;;;4.50;;
6999;SDS011;3540;53.242;10.408;2024-03-17T00:58:23;27.90;;;4.60;;
6999;SDS011;3540;53.242;10.408;2024-03-17T01:00:49;29.30;;;4.20;;
6999;SDS011;3540;53.242;10.408;2024-03-17T01:03:15;28.93;;;3.93;;
6999;SDS011;3540;53.242;10.408;2024-03-17T01:05:41;19.83;;;3.60;;
6999;SDS011;3540;53.242;10.408;2024-03-17T01:08:09;18.90;;;4.30;;
6999;SDS011;3540;53.242;10.408;2024-03-17T01:10:38;19.23;;;3.37;;
6999;SDS011;3540;53.242;10.408;2024-03-17T01:13:08;33.27;;;4.07;;
6999;SDS011;3540;53.242;10.408;2024-03-17T01:15:37;14.87;;;3.37;;
6999;SDS011;3540;53.242;10.408;2024-03-17T01:18:04;28.53;;;4.53;;
6999;SDS011;3540;53.242;10.408;2024-03-17T01:20:34;18.87;;;3.63;;
6999;SDS011;3540;53.242;10.408;2024-03-17T01:23:01;26.70;;;3.43;;
6999;SDS011;3540;53.242;10.408;2024-03-17T01:25:27;19.33;;;3.60;;
6999;SDS011;3540;53.242;10.408;2024-03-17T01:27:54;14.90;;;3.50;;
6999;SDS011;3540;53.242;10.408;2024-03-17T01:30:21;21.00;;;3.43;;
6999;SDS011;3540;53.242;10.408;2024-03-17T01:32:47;24.87;;;3.20;;
6999;SDS011;3540;53.242;10.408;2024-03-17T01:35:14;21.40;;;3.90;;
6999;SDS011;3540;53.242;10.408;2024-03-17T01:37:40;16.37;;;3.00;;
6999;SDS011;3540;53.242;10.408;2024-03-17T01:40:06;21.87;;;3.37;;
6999;SDS011;3540;53.242;10.408;2024-03-17T01:42:35;24.67;;;4.03;;
6999;SDS011;3540;53.242;10.408;2024-03-17T01:45:07;21.00;;;3.27;;
6999;SDS011;3540;53.242;10.408;2024-03-17T01:47:43;25.13;;;3.70;;
6999;SDS011;3540;53.242;10.408;2024-03-17T01:50:10;19.03;;;3.27;;
6999;SDS011;3540;53.242;10.408;2024-03-17T01:52:38;23.93;;;3.93;;
6999;SDS011;3540;53.242;10.408;2024-03-17T01:55:04;24.20;;;3.87;;
6999;SDS011;3540;53.242;10.408;2024-03-17T01:57:30;19.90;;;3.67;;
6999;SDS011;3540;53.242;10.408;2024-03-17T01:59:56;21.27;;;3.20;;
6999;SDS011;3540;53.242;10.408;2024-03-17T02:02:23;20.60;;;2.87;;
6999;SDS011;3540;53.242;10.408;2024-03-17T02:04:49;16.27;;;3.50;;
6999;SDS011;3540;53.242;10.408;2024-03-17T02:07:15;16.23;;;3.07;;
6999;SDS011;3540;53.242;10.408;2024-03-17T02:09:41;24.43;;;3.70;;
6999;SDS011;3540;53.242;10.408;2024-03-17T02:12:08;18.87;;;3.20;;
6999;SDS011;3540;53.242;10.408;2024-03-17T02:14:34;20.70;;;3.03;;
6999;SDS011;3540;53.242;10.408;2024-03-17T02:17:00;23.00;;;4.00;;
6999;SDS011;3540;53.242;10.408;2024-03-17T02:19:27;26.63;;;3.80;;
6999;SDS011;3540;53.242;10.408;2024-03-17T02:21:52;22.77;;;3.37;;
6999;SDS011;3540;53.242;10.408;2024-03-17T02:24:18;19.53;;;3.33;;
6999;SDS011;3540;53.242;10.408;2024-03-17T02:26:44;19.20;;;3.67;;
6999;SDS011;3540;53.242;10.408;2024-03-17T02:29:09;21.57;;;4.53;;
6999;SDS011;3540;53.242;10.408;2024-03-17T02:31:35;17.13;;;3.40;;
6999;SDS011;3540;53.242;10.408;2024-03-17T02:34:01;23.23;;;3.93;;
6999;SDS011;3540;53.242;10.408;2024-03-17T02:36:26;21.03;;;3.90;;
6999;SDS011;3540;53.242;10.408;2024-03-17T02:38:52;21.47;;;3.23;;
6999;SDS011;3540;53.242;10.408;2024-03-17T02:41:36;19.47;;;3.47;;
6999;SDS011;3540;53.242;10.408;2024-03-17T02:44:02;23.23;;;3.50;;
6999;SDS011;3540;53.242;10.408;2024-03-17T02:46:28;17.87;;;3.83;;
6999;SDS011;3540;53.242;10.408;2024-03-17T02:48:54;24.07;;;4.00;;
6999;SDS011;3540;53.242;10.408;2024-03-17T02:51:21;20.17;;;3.67;;
6999;SDS011;3540;53.242;10.408;2024-03-17T02:53:47;18.00;;;3.93;;
6999;SDS011;3540;53.242;10.408;2024-03-17T02:56:15;24.53;;;4.53;;
6999;SDS011;3540;53.242;10.408;2024-03-17T02:58:41;20.80;;;3.37;;
6999;SDS011;3540;53.242;10.408;2024-03-17T03:01:08;17.63;;;3.53;;
6999;SDS011;3540;53.242;10.408;2024-03-17T03:03:36;26.57;;;3.97;;
6999;SDS011;3540;53.242;10.408;2024-03-17T03:06:02;22.20;;;3.60;;
6999;SDS011;3540;53.242;10.408;2024-03-17T03:08:29;22.97;;;3.33;;
6999;SDS011;3540;53.242;10.408;2024-03-17T03:10:55;19.20;;;3.17;;
6999;SDS011;3540;53.242;10.408;2024-03-17T03:13:21;23.87;;;3.77;;
6999;SDS011;3540;53.242;10.408;2024-03-17T03:15:50;16.70;;;3.20;;
6999;SDS011;3540;53.242;10.408;2024-03-17T03:18:16;21.50;;;3.33;;
6999;SDS011;3540;53.242;10.408;2024-03-17T03:20:41;16.87;;;3.27;;
6999;SDS011;3540;53.242;10.408;2024-03-17T03:23:08;23.20;;;4.07;;
6999;SDS011;3540;53.242;10.408;2024-03-17T03:25:34;16.13;;;3.30;;
6999;SDS011;3540;53.242;10.408;2024-03-17T03:27:59;19.23;;;3.33;;
6999;SDS011;3540;53.242;10.408;2024-03-17T03:30:26;16.97;;;3.43;;
6999;SDS011;3540;53.242;10.408;2024-03-17T03:32:52;22.33;;;3.70;;
6999;SDS011;3540;53.242;10.408;2024-03-17T03:35:18;16.13;;;3.33;;
6999;SDS011;3540;53.242;10.408;2024-03-17T03:37:44;19.70;;;3.30;;
6999;SDS011;3540;53.242;10.408;2024-03-17T03:40:10;17.07;;;3.47;;
6999;SDS011;3540;53.242;10.408;2024-03-17T03:42:45;16.10;;;3.27;;
6999;SDS011;3540;53.242;10.408;2024-03-17T03:45:12;19.53;;;3.13;;
6999;SDS011;3540;53.242;10.408;2024-03-17T03:47:41;25.30;;;3.30;;
6999;SDS011;3540;53.242;10.408;2024-03-17T03:50:08;20.93;;;2.97;;
6999;SDS011;3540;53.242;10.408;2024-03-17T03:52:34;24.47;;;3.83;;
6999;SDS011;3540;53.242;10.408;2024-03-17T03:55:00;17.60;;;3.17;;
6999;SDS011;3540;53.242;10.408;2024-03-17T03:57:26;12.30;;;2.57;;
6999;SDS011;3540;53.242;10.408;2024-03-17T03:59:54;17.07;;;3.07;;
6999;SDS011;3540;53.242;10.408;2024-03-17T04:02:21;23.37;;;3.30;;
6999;SDS011;3540;53.242;10.408;2024-03-17T04:04:46;17.10;;;2.97;;
6999;SDS011;3540;53.242;10.408;2024-03-17T04:07:12;19.80;;;3.40;;
6999;SDS011;3540;53.242;10.408;2024-03-17T04:09:38;23.23;;;3.23;;
6999;SDS011;3540;53.242;10.408;2024-03-17T04:12:04;22.87;;;3.43;;
6999;SDS011;3540;53.242;10.408;2024-03-17T04:14:30;20.47;;;3.37;;
6999;SDS011;3540;53.242;10.408;2024-03-17T04:16:56;12.23;;;3.10;;
6999;SDS011;3540;53.242;10.408;2024-03-17T04:19:23;16.03;;;3.00;;
6999;SDS011;3540;53.242;10.408;2024-03-17T04:21:48;20.60;;;2.80;;
6999;SDS011;3540;53.242;10.408;2024-03-17T04:24:14;23.47;;;3.20;;
6999;SDS011;3540;53.242;10.408;2024-03-17T04:26:39;21.70;;;3.10;;
6999;SDS011;3540;53.242;10.408;2024-03-17T04:29:05;14.63;;;2.77;;
6999;SDS011;3540;53.242;10.408;2024-03-17T04:31:31;13.57;;;3.10;;
6999;SDS011;3540;53.242;10.408;2024-03-17T04:33:56;19.17;;;3.23;;
6999;SDS011;3540;53.242;10.408;2024-03-17T04:36:22;14.80;;;2.80;;
6999;SDS011;3540;53.242;10.408;2024-03-17T04:38:48;19.10;;;2.70;;
6999;SDS011;3540;53.242;10.408;2024-03-17T04:41:17;13.80;;;2.50;;
6999;SDS011;3540;53.242;10.408;2024-03-17T04:43:43;16.07;;;3.37;;
6999;SDS011;3540;53.242;10.408;2024-03-17T04:46:09;17.50;;;3.20;;
6999;SDS011;3540;53.242;10.408;2024-03-17T04:48:36;12.67;;;2.70;;
6999;SDS011;3540;53.242;10.408;2024-03-17T04:51:02;10.80;;;2.80;;
6999;SDS011;3540;53.242;10.408;2024-03-17T04:53:28;16.77;;;3.10;;
6999;SDS011;3540;53.242;10.408;2024-03-17T04:56:04;16.27;;;2.70;;
6999;SDS011;3540;53.242;10.408;2024-03-17T04:58:31;14.30;;;3.10;;
6999;SDS011;3540;53.242;10.408;2024-03-17T05:00:57;15.33;;;3.23;;
6999;SDS011;3540;53.242;10.408;2024-03-17T05:03:27;16.63;;;3.07;;
6999;SDS011;3540;53.242;10.408;2024-03-17T05:05:59;15.37;;;3.00;;
6999;SDS011;3540;53.242;10.408;2024-03-17T05:08:29;19.87;;;3.63;;
6999;SDS011;3540;53.242;10.408;2024-03-17T05:11:04;14.33;;;3.50;;
6999;SDS011;3540;53.242;10.408;2024-03-17T05:13:31;13.07;;;2.83;;
6999;SDS011;3540;53.242;10.408;2024-03-17T05:15:58;17.83;;;3.00;;
6999;SDS011;3540;53.242;10.408;2024-03-17T05:18:24;15.53;;;2.73;;
6999;SDS011;3540;53.242;10.408;2024-03-17T05:20:59;13.67;;;2.87;;
6999;SDS011;3540;53.242;10.408;2024-03-17T05:23:26;13.80;;;2.80;;
6999;SDS011;3540;53.242;10.408;2024-03-17T05:25:53;15.47;;;2.67;;
6999;SDS011;3540;53.242;10.408;2024-03-17T05:28:19;11.17;;;2.97;;
6999;SDS011;3540;53.242;10.408;2024-03-17T05:30:45;20.93;;;2.83;;
6999;SDS011;3540;53.242;10.408;2024-03-17T05:33:13;18.40;;;2.80;;
6999;SDS011;3540;53.242;10.408;2024-03-17T05:35:38;20.27;;;3.00;;
6999;SDS011;3540;53.242;10.408;2024-03-17T05:38:04;16.20;;;2.53;;
6999;SDS011;3540;53.242;10.408;2024-03-17T05:40:29;18.00;;;3.27;;
6999;SDS011;3540;53.242;10.408;2024-03-17T05:42:58;13.47;;;2.90;;
6999;SDS011;3540;53.242;10.408;2024-03-17T05:45:25;14.20;;;3.47;;
6999;SDS011;3540;53.242;10.408;2024-03-17T05:47:50;15.67;;;3.50;;
6999;SDS011;3540;53.242;10.408;2024-03-17T05:50:16;14.13;;;3.20;;
6999;SDS011;3540;53.242;10.408;2024-03-17T05:52:41;22.73;;;4.30;;
6999;SDS011;3540;53.242;10.408;2024-03-17T05:55:07;20.60;;;2.93;;
6999;SDS011;3540;53.242;10.408;2024-03-17T05:57:36;22.70;;;3.47;;
6999;SDS011;3540;53.242;10.408;2024-03-17T06:00:02;17.40;;;4.07;;
6999;SDS011;3540;53.242;10.408;2024-03-17T06:02:27;12.60;;;3.00;;
6999;SDS011;3540;53.242;10.408;2024-03-17T06:04:55;14.03;;;2.87;;
6999;SDS011;3540;53.242;10.408;2024-03-17T06:07:20;12.90;;;3.13;;
6999;SDS011;3540;53.242;10.408;2024-03-17T06:09:46;12.77;;;2.90;;
6999;SDS011;3540;53.242;10.408;2024-03-17T06:12:12;15.63;;;3.07;;
6999;SDS011;3540;53.242;10.408;2024-03-17T06:14:38;23.70;;;3.40;;
6999;SDS011;3540;53.242;10.408;2024-03-17T06:17:03;18.43;;;3.10;;
6999;SDS011;3540;53.242;10.408;2024-03-17T06:19:30;17.23;;;2.97;;
6999;SDS011;3540;53.242;10.408;2024-03-17T06:21:55;17.30;;;4.33;;
6999;SDS011;3540;53.242;10.408;2024-03-17T06:24:22;21.83;;;3.40;;
6999;SDS011;3540;53.242;10.408;2024-03-17T06:26:50;20.47;;;3.40;;
6999;SDS011;3540;53.242;10.408;2024-03-17T06:29:16;27.33;;;3.97;;
6999;SDS011;3540;53.242;10.408;2024-03-17T06:31:41;14.50;;;3.33;;
6999;SDS011;3540;53.242;10.408;2024-03-17T06:34:07;21.60;;;3.23;;
6999;SDS011;3540;53.242;10.408;2024-03-17T06:36:32;18.60;;;3.23;;
6999;SDS011;3540;53.242;10.408;2024-03-17T06:38:58;20.70;;;3.60;;
6999;SDS011;3540;53.242;10.408;2024-03-17T06:41:24;17.03;;;3.60;;
6999;SDS011;3540;53.242;10.408;2024-03-17T06:43:49;17.33;;;3.60;;
6999;SDS011;3540;53.242;10.408;2024-03-17T06:46:15;16.13;;;3.40;;
6999;SDS011;3540;53.242;10.408;2024-03-17T06:48:41;20.17;;;3.67;;
6999;SDS011;3540;53.242;10.408;2024-03-17T06:51:07;17.93;;;3.53;;
6999;SDS011;3540;53.242;10.408;2024-03-17T06:53:33;14.07;;;3.37;;
6999;SDS011;3540;53.242;10.408;2024-03-17T06:55:59;14.87;;;3.80;;
6999;SDS011;3540;53.242;10.408;2024-03-17T06:58:25;16.90;;;3.97;;
6999;SDS011;3540;53.242;10.408;2024-03-17T07:00:59;15.17;;;4.63;;
6999;SDS011;3540;53.242;10.408;2024-03-17T07:03:29;23.43;;;4.50;;
6999;SDS011;3540;53.242;10.408;2024-03-17T07:05:57;17.40;;;3.87;;
6999;SDS011;3540;53.242;10.408;2024-03-17T07:08:24;21.73;;;4.73;;
6999;SDS011;3540;53.242;10.408;2024-03-17T07:13:32;23.80;;;5.27;;
6999;SDS011;3540;53.242;10.408;2024-03-17T07:15:59;19.10;;;5.10;;
6999;SDS011;3540;53.242;10.408;2024-03-17T07:18:26;18.57;;;5.23;;
6999;SDS011;3540;53.242;10.408;2024-03-17T07:20:53;18.70;;;5.90;;
6999;SDS011;3540;53.242;10.408;2024-03-17T07:23:23;19.37;;;5.23;;
6999;SDS011;3540;53.242;10.408;2024-03-17T07:25:58;18.80;;;5.30;;
6999;SDS011;3540;53.242;10.408;2024-03-17T07:28:25;16.97;;;5.43;;
6999;SDS011;3540;53.242;10.408;2024-03-17T07:30:52;16.67;;;5.37;;
6999;SDS011;3540;53.242;10.408;2024-03-17T07:33:19;20.33;;;6.27;;
6999;SDS011;3540;53.242;10.408;2024-03-17T07:35:49;20.93;;;6.67;;
6999;SDS011;3540;53.242;10.408;2024-03-17T07:38:20;18.10;;;6.37;;
6999;SDS011;3540;53.242;10.408;2024-03-17T07:40:54;21.00;;;5.70;;
6999;SDS011;3540;53.242;10.408;2024-03-17T07:43:22;23.40;;;6.37;;
6999;SDS011;3540;53.242;10.408;2024-03-17T07:45:56;22.17;;;5.77;;
6999;SDS011;3540;53.242;10.408;2024-03-17T07:48:25;18.30;;;5.60;;
6999;SDS011;3540;53.242;10.408;2024-03-17T07:50:55;19.10;;;5.93;;
6999;SDS011;3540;53.242;10.408;2024-03-17T07:53:21;20.03;;;5.13;;
6999;SDS011;3540;53.242;10.408;2024-03-17T07:55:54;16.50;;;5.90;;
6999;SDS011;3540;53.242;10.408;2024-03-17T07:58:25;19.37;;;6.00;;
6999;SDS011;3540;53.242;10.408;2024-03-17T08:00:52;18.00;;;5.17;;
6999;SDS011;3540;53.242;10.408;2024-03-17T08:03:21;12.47;;;4.87;;
6999;SDS011;3540;53.242;10.408;2024-03-17T08:05:47;14.23;;;4.77;;
6999;SDS011;3540;53.242;10.408;2024-03-17T08:08:17;19.73;;;4.60;;
6999;SDS011;3540;53.242;10.408;2024-03-17T08:10:43;15.57;;;4.80;;
6999;SDS011;3540;53.242;10.408;2024-03-17T08:13:09;18.57;;;5.10;;
6999;SDS011;3540;53.242;10.408;2024-03-17T08:15:41;13.70;;;3.73;;
6999;SDS011;3540;53.242;10.408;2024-03-17T08:18:08;17.97;;;4.23;;
6999;SDS011;3540;53.242;10.408;2024-03-17T08:20:38;14.70;;;3.73;;
6999;SDS011;3540;53.242;10.408;2024-03-17T08:23:08;14.80;;;3.90;;
6999;SDS011;3540;53.242;10.408;2024-03-17T08:25:36;16.80;;;3.77;;
6999;SDS011;3540;53.242;10.408;2024-03-17T08:28:01;9.93;;;3.30;;
6999;SDS011;3540;53.242;10.408;2024-03-17T08:30:27;12.50;;;3.63;;
6999;SDS011;3540;53.242;10.408;2024-03-17T08:32:55;13.90;;;3.13;;
6999;SDS011;3540;53.242;10.408;2024-03-17T08:35:24;14.80;;;3.00;;
6999;SDS011;3540;53.242;10.408;2024-03-17T08:37:50;20.33;;;3.23;;
6999;SDS011;3540;53.242;10.408;2024-03-17T08:40:17;16.87;;;2.90;;
6999;SDS011;3540;53.242;10.408;2024-03-17T08:42:43;18.27;;;3.50;;
6999;SDS011;3540;53.242;10.408;2024-03-17T08:45:10;14.00;;;3.00;;
6999;SDS011;3540;53.242;10.408;2024-03-17T08:47:37;14.37;;;2.90;;
6999;SDS011;3540;53.242;10.408;2024-03-17T08:50:03;10.23;;;2.73;;
6999;SDS011;3540;53.242;10.408;2024-03-17T08:52:29;11.47;;;2.97;;
6999;SDS011;3540;53.242;10.408;2024-03-17T08:54:57;16.77;;;3.03;;
6999;SDS011;3540;53.242;10.408;2024-03-17T08:57:23;13.47;;;3.43;;
6999;SDS011;3540;53.242;10.408;2024-03-17T08:59:48;17.53;;;3.80;;
6999;SDS011;3540;53.242;10.408;2024-03-17T09:02:14;16.13;;;3.37;;
6999;SDS011;3540;53.242;10.408;2024-03-17T09:04:42;12.73;;;2.63;;
6999;SDS011;3540;53.242;10.408;2024-03-17T09:07:08;10.03;;;2.60;;
6999;SDS011;3540;53.242;10.408;2024-03-17T09:09:33;16.27;;;3.10;;
6999;SDS011;3540;53.242;10.408;2024-03-17T09:11:59;15.73;;;2.77;;
6999;SDS011;3540;53.242;10.408;2024-03-17T09:14:25;10.73;;;2.90;;
6999;SDS011;3540;53.242;10.408;2024-03-17T09:16:50;18.70;;;3.53;;
6999;SDS011;3540;53.242;10.408;2024-03-17T09:19:16;11.07;;;2.47;;
6999;SDS011;3540;53.242;10.408;2024-03-17T09:21:42;11.90;;;2.53;;
6999;SDS011;3540;53.242;10.408;2024-03-17T09:24:08;10.90;;;2.53;;
6999;SDS011;3540;53.242;10.408;2024-03-17T09:26:34;9.73;;;2.27;;
6999;SDS011;3540;53.242;10.408;2024-03-17T09:29:00;12.03;;;2.60;;
6999;SDS011;3540;53.242;10.408;2024-03-17T09:31:26;11.70;;;2.67;;
6999;SDS011;3540;53.242;10.408;2024-03-17T09:33:52;16.53;;;2.50;;
6999;SDS011;3540;53.242;10.408;2024-03-17T09:36:18;8.10;;;1.97;;
6999;SDS011;3540;53.242;10.408;2024-03-17T09:38:43;8.77;;;2.23;;
6999;SDS011;3540;53.242;10.408;2024-03-17T09:41:20;6.80;;;1.80;;
6999;SDS011;3540;53.242;10.408;2024-03-17T09:43:50;4.03;;;1.57;;
6999;SDS011;3540;53.242;10.408;2024-03-17T09:46:19;6.03;;;2.00;;
6999;SDS011;3540;53.242;10.408;2024-03-17T09:48:45;7.20;;;2.27;;
6999;SDS011;3540;53.242;10.408;2024-03-17T09:51:18;7.60;;;1.70;;
6999;SDS011;3540;53.242;10.408;2024-03-17T09:53:45;5.13;;;1.77;;
6999;SDS011;3540;53.242;10.408;2024-03-17T09:56:16;7.73;;;2.00;;
6999;SDS011;3540;53.242;10.408;2024-03-17T09:58:52;8.30;;;1.90;;
6999;SDS011;3540;53.242;10.408;2024-03-17T10:01:18;8.37;;;2.37;;
6999;SDS011;3540;53.242;10.408;2024-03-17T10:03:47;8.73;;;2.33;;
6999;SDS011;3540;53.242;10.408;2024-03-17T10:06:17;11.90;;;2.67;;
6999;SDS011;3540;53.242;10.408;2024-03-17T10:08:47;6.30;;;2.03;;
6999;SDS011;3540;53.242;10.408;2024-03-17T10:11:15;11.20;;;2.13;;
6999;SDS011;3540;53.242;10.408;2024-03-17T10:13:43;13.97;;;2.50;;
6999;SDS011;3540;53.242;10.408;2024-03-17T10:16:20;12.13;;;2.10;;
6999;SDS011;3540;53.242;10.408;2024-03-17T10:18:51;10.80;;;2.07;;
6999;SDS011;3540;53.242;10.408;2024-03-17T10:21:35;9.83;;;2.10;;
6999;SDS011;3540;53.242;10.408;2024-03-17T10:24:05;10.67;;;2.60;;
6999;SDS011;3540;53.242;10.408;2024-03-17T10:26:35;9.27;;;2.03;;
6999;SDS011;3540;53.242;10.408;2024-03-17T10:29:21;8.80;;;2.10;;
6999;SDS011;3540;53.242;10.408;2024-03-17T10:32:06;10.63;;;2.13;;
6999;SDS011;3540;53.242;10.408;2024-03-17T10:34:38;11.13;;;2.20;;
6999;SDS011;3540;53.242;10.408;2024-03-17T10:39:40;11.80;;;2.40;;
6999;SDS011;3540;53.242;10.408;2024-03-17T10:42:08;7.20;;;2.20;;
6999;SDS011;3540;53.242;10.408;2024-03-17T10:44:36;9.17;;;2.00;;
6999;SDS011;3540;53.242;10.408;2024-03-17T10:47:03;9.37;;;2.20;;
6999;SDS011;3540;53.242;10.408;2024-03-17T10:49:37;9.93;;;2.33;;
6999;SDS011;3540;53.242;10.408;2024-03-17T10:52:05;6.63;;;1.70;;
6999;SDS011;3540;53.242;10.408;2024-03-17T10:54:32;8.63;;;2.00;;
6999;SDS011;3540;53.242;10.408;2024-03-17T10:57:44;9.13;;;1.93;;
6999;SDS011;3540;53.242;10.408;2024-03-17T10:59:53;5.27;;;1.83;;
6999;SDS011;3540;53.242;10.408;2024-03-17T11:04:57;7.07;;;1.90;;
6999;SDS011;3540;53.242;10.408;2024-03-17T11:07:24;6.63;;;2.00;;
6999;SDS011;3540;53.242;10.408;2024-03-17T11:09:51;6.67;;;1.87;;
6999;SDS011;3540;53.242;10.408;2024-03-17T11:17:50;8.77;;;1.70;;
6999;SDS011;3540;53.242;10.408;2024-03-17T11:20:18;6.20;;;1.80;;
6999;SDS011;3540;53.242;10.408;2024-03-17T11:22:50;7.90;;;2.20;;
6999;SDS011;3540;53.242;10.408;2024-03-17T11:27:58;9.10;;;1.87;;
6999;SDS011;3540;53.242;10.408;2024-03-17T11:38:53;6.87;;;1.97;;
6999;SDS011;3540;53.242;10.408;2024-03-17T11:44:13;7.73;;;1.90;;
6999;SDS011;3540;53.242;10.408;2024-03-17T11:54:38;6.77;;;1.67;;
6999;SDS011;3540;53.242;10.408;2024-03-17T11:57:11;5.70;;;1.70;;
6999;SDS011;3540;53.242;10.408;2024-03-17T11:59:38;4.63;;;1.30;;
6999;SDS011;3540;53.242;10.408;2024-03-17T12:04:58;7.53;;;1.90;;
6999;SDS011;3540;53.242;10.408;2024-03-17T12:07:26;11.13;;;2.03;;
6999;SDS011;3540;53.242;10.408;2024-03-17T12:09:55;8.43;;;2.00;;
6999;SDS011;3540;53.242;10.408;2024-03-17T12:12:25;5.37;;;1.90;;
6999;SDS011;3540;53.242;10.408;2024-03-17T12:15:01;7.70;;;1.70;;
6999;SDS011;3540;53.242;10.408;2024-03-17T12:17:28;8.13;;;1.83;;
6999;SDS011;3540;53.242;10.408;2024-03-17T12:19:54;12.63;;;2.20;;
6999;SDS011;3540;53.242;10.408;2024-03-17T12:22:23;6.90;;;2.03;;
6999;SDS011;3540;53.242;10.408;2024-03-17T12:24:54;5.47;;;1.57;;
6999;SDS011;3540;53.242;10.408;2024-03-17T12:27:24;4.97;;;1.60;;
6999;SDS011;3540;53.242;10.408;2024-03-17T12:29:51;6.97;;;1.90;;
6999;SDS011;3540;53.242;10.408;2024-03-17T12:32:23;8.47;;;1.83;;
6999;SDS011;3540;53.242;10.408;2024-03-17T12:34:54;7.70;;;2.17;;
6999;SDS011;3540;53.242;10.408;2024-03-17T12:37:24;8.53;;;1.97;;
6999;SDS011;3540;53.242;10.408;2024-03-17T12:40:00;8.20;;;2.23;;
6999;SDS011;3540;53.242;10.408;2024-03-17T12:42:26;8.40;;;1.90;;
6999;SDS011;3540;53.242;10.408;2024-03-17T12:44:54;8.23;;;2.03;;
6999;SDS011;3540;53.242;10.408;2024-03-17T12:47:24;6.87;;;1.90;;
6999;SDS011;3540;53.242;10.408;2024-03-17T12:49:51;5.30;;;1.73;;
6999;SDS011;3540;53.242;10.408;2024-03-17T12:52:22;6.43;;;1.60;;
6999;SDS011;3540;53.242;10.408;2024-03-17T13:00:45;5.03;;;1.90;;
6999;SDS011;3540;53.242;10.408;2024-03-17T13:03:21;5.30;;;1.70;;
6999;SDS011;3540;53.242;10.408;2024-03-17T13:05:52;9.37;;;2.10;;
6999;SDS011;3540;53.242;10.408;2024-03-17T13:08:18;6.17;;;1.97;;
6999;SDS011;3540;53.242;10.408;2024-03-17T13:10:44;7.00;;;1.90;;
6999;SDS011;3540;53.242;10.408;2024-03-17T13:13:10;4.77;;;1.67;;
6999;SDS011;3540;53.242;10.408;2024-03-17T13:15:40;7.23;;;1.70;;
6999;SDS011;3540;53.242;10.408;2024-03-17T13:18:06;5.40;;;2.07;;
6999;SDS011;3540;53.242;10.408;2024-03-17T13:20:32;8.07;;;1.90;;
6999;SDS011;3540;53.242;10.408;2024-03-17T13:22:59;6.53;;;1.63;;
6999;SDS011;3540;53.242;10.408;2024-03-17T13:25:26;4.17;;;1.50;;
6999;SDS011;3540;53.242;10.408;2024-03-17T13:27:55;5.97;;;1.60;;
6999;SDS011;3540;53.242;10.408;2024-03-17T13:30:22;6.50;;;1.70;;
6999;SDS011;3540;53.242;10.408;2024-03-17T13:32:52;7.17;;;1.97;;
6999;SDS011;3540;53.242;10.408;2024-03-17T13:35:23;5.43;;;1.80;;
6999;SDS011;3540;53.242;10.408;2024-03-17T13:37:57;5.63;;;1.73;;
6999;SDS011;3540;53.242;10.408;2024-03-17T13:40:27;4.93;;;1.67;;
6999;SDS011;3540;53.242;10.408;2024-03-17T13:42:54;6.33;;;1.70;;
6999;SDS011;3540;53.242;10.408;2024-03-17T13:45:21;3.63;;;1.67;;
6999;SDS011;3540;53.242;10.408;2024-03-17T13:47:58;7.73;;;1.83;;
6999;SDS011;3540;53.242;10.408;2024-03-17T13:50:26;4.50;;;1.53;;
6999;SDS011;3540;53.242;10.408;2024-03-17T13:52:52;5.63;;;1.67;;
6999;SDS011;3540;53.242;10.408;2024-03-17T13:55:18;5.03;;;1.90;;
6999;SDS011;3540;53.242;10.408;2024-03-17T13:57:46;9.33;;;1.70;;
6999;SDS011;3540;53.242;10.408;2024-03-17T14:00:16;7.57;;;1.60;;
6999;SDS011;3540;53.242;10.408;2024-03-17T14:02:45;8.57;;;2.00;;
6999;SDS011;3540;53.242;10.408;2024-03-17T14:05:13;9.87;;;2.43;;
6999;SDS011;3540;53.242;10.408;2024-03-17T14:07:40;6.70;;;2.17;;
6999;SDS011;3540;53.242;10.408;2024-03-17T14:10:07;9.03;;;2.00;;
6999;SDS011;3540;53.242;10.408;2024-03-17T14:12:34;9.50;;;2.40;;
6999;SDS011;3540;53.242;10.408;2024-03-17T14:15:04;9.70;;;2.30;;
6999;SDS011;3540;53.242;10.408;2024-03-17T14:17:31;6.97;;;2.00;;
6999;SDS011;3540;53.242;10.408;2024-03-17T14:19:57;7.80;;;2.43;;
6999;SDS011;3540;53.242;10.408;2024-03-17T14:22:23;9.37;;;2.00;;
6999;SDS011;3540;53.242;10.408;2024-03-17T14:24:49;6.83;;;2.20;;
6999;SDS011;3540;53.242;10.408;2024-03-17T14:27:15;6.63;;;2.10;;
6999;SDS011;3540;53.242;10.408;2024-03-17T14:29:42;9.60;;;2.73;;
6999;SDS011;3540;53.242;10.408;2024-03-17T14:32:08;11.27;;;2.50;;
6999;SDS011;3540;53.242;10.408;2024-03-17T14:34:34;8.70;;;2.40;;
6999;SDS011;3540;53.242;10.408;2024-03-17T14:37:02;7.57;;;2.20;;
6999;SDS011;3540;53.242;10.408;2024-03-17T14:39:28;10.10;;;2.60;;
6999;SDS011;3540;53.242;10.408;2024-03-17T14:41:54;8.53;;;2.20;;
6999;SDS011;3540;53.242;10.408;2024-03-17T14:44:20;8.83;;;2.17;;
6999;SDS011;3540;53.242;10.408;2024-03-17T14:46:47;11.40;;;2.57;;
6999;SDS011;3540;53.242;10.408;2024-03-17T14:49:14;13.37;;;2.97;;
6999;SDS011;3540;53.242;10.408;2024-03-17T14:51:40;8.93;;;2.13;;
6999;SDS011;3540;53.242;10.408;2024-03-17T14:54:06;10.87;;;2.67;;
6999;SDS011;3540;53.242;10.408;2024-03-17T14:56:33;6.17;;;2.30;;
6999;SDS011;3540;53.242;10.408;2024-03-17T14:58:59;9.93;;;2.50;;
6999;SDS011;3540;53.242;10.408;2024-03-17T15:01:24;8.57;;;2.33;;
6999;SDS011;3540;53.242;10.408;2024-03-17T15:03:51;8.00;;;2.13;;
6999;SDS011;3540;53.242;10.408;2024-03-17T15:06:16;10.70;;;2.70;;
6999;SDS011;3540;53.242;10.408;2024-03-17T15:08:43;8.67;;;2.30;;
6999;SDS011;3540;53.242;10.408;2024-03-17T15:11:09;10.33;;;2.50;;
6999;SDS011;3540;53.242;10.408;2024-03-17T15:13:35;10.27;;;2.70;;
6999;SDS011;3540;53.242;10.408;2024-03-17T15:16:04;8.40;;;2.60;;
6999;SDS011;3540;53.242;10.408;2024-03-17T15:18:31;15.17;;;2.57;;
6999;SDS011;3540;53.242;10.408;2024-03-17T15:20:58;10.40;;;2.70;;
6999;SDS011;3540;53.242;10.408;2024-03-17T15:23:30;8.13;;;2.67;;
6999;SDS011;3540;53.242;10.408;2024-03-17T15:26:02;8.23;;;2.50;;
6999;SDS011;3540;53.242;10.408;2024-03-17T15:28:38;7.77;;;2.27;;
6999;SDS011;3540;53.242;10.408;2024-03-17T15:31:08;6.20;;;2.30;;
6999;SDS011;3540;53.242;10.408;2024-03-17T15:33:34;10.00;;;2.13;;
6999;SDS011;3540;53.242;10.408;2024-03-17T15:36:02;10.17;;;2.80;;
6999;SDS011;3540;53.242;10.408;2024-03-17T15:38:31;6.67;;;2.30;;
6999;SDS011;3540;53.242;10.408;2024-03-17T15:40:58;10.03;;;2.50;;